createdAt,value
2023-04-26T00:02:27.591Z,100683.00
2023-04-26T00:05:02.463Z,100688.00
2023-04-26T00:07:32.790Z,100689.00
2023-04-26T00:10:02.846Z,100689.00
2023-04-26T00:12:32.854Z,100696.00
2023-04-26T00:15:02.865Z,100705.00
2023-04-26T00:17:33.106Z,100698.00
2023-04-26T00:20:09.335Z,100692.00
2023-04-26T00:22:39.938Z,100703.00
2023-04-26T00:25:11.374Z,100692.00
2023-04-26T00:27:41.408Z,100697.00
2023-04-26T00:30:13.465Z,100701.00
2023-04-26T00:32:43.486Z,100698.00
2023-04-26T00:35:16.398Z,100704.00
2023-04-26T00:37:46.493Z,100705.00
2023-04-26T00:40:17.503Z,100696.00
2023-04-26T00:42:47.468Z,100705.00
2023-04-26T00:45:17.689Z,100704.00
2023-04-26T00:47:47.882Z,100698.00
2023-04-26T00:50:20.623Z,100695.00
2023-04-26T00:52:50.907Z,100694.00
2023-04-26T00:55:23.443Z,100695.00
2023-04-26T00:57:53.468Z,100702.00
2023-04-26T01:00:23.533Z,100697.00
2023-04-26T01:02:54.087Z,100701.00
2023-04-26T01:05:26.958Z,100702.00
2023-04-26T01:07:57.908Z,100697.00
2023-04-26T01:10:28.564Z,100703.00
2023-04-26T01:12:58.965Z,100707.00
2023-04-26T01:15:30.646Z,100704.00
2023-04-26T01:18:00.723Z,100702.00
2023-04-26T01:20:33.424Z,100704.00
2023-04-26T01:23:06.317Z,100709.00
2023-04-26T01:25:36.780Z,100712.00
2023-04-26T01:28:06.893Z,100701.00
2023-04-26T01:30:36.852Z,100710.00
2023-04-26T01:33:07.561Z,100711.00
2023-04-26T01:35:37.584Z,100711.00
2023-04-26T01:38:10.276Z,100717.00
2023-04-26T01:40:40.246Z,100722.00
2023-04-26T01:43:11.243Z,100722.00
2023-04-26T01:45:41.517Z,100724.00
2023-04-26T01:48:11.661Z,100731.00
2023-04-26T01:50:41.748Z,100717.00
2023-04-26T01:53:14.408Z,100735.00
2023-04-26T01:55:44.362Z,100735.00
2023-04-26T01:58:14.392Z,100727.00
2023-04-26T02:00:44.362Z,100723.00
2023-04-26T02:03:14.396Z,100729.00
2023-04-26T02:05:44.374Z,100727.00
2023-04-26T02:08:16.937Z,100724.00
2023-04-26T02:10:46.917Z,100722.00
2023-04-26T02:13:18.088Z,100727.00
2023-04-26T02:15:49.774Z,100721.00
2023-04-26T02:18:22.191Z,100729.00
2023-04-26T02:20:52.377Z,100721.00
2023-04-26T02:23:24.944Z,100717.00
2023-04-26T02:25:55.307Z,100720.00
2023-04-26T02:28:25.286Z,100718.00
2023-04-26T02:30:56.875Z,100718.00
2023-04-26T02:33:27.085Z,100714.00
2023-04-26T02:35:57.105Z,100720.00
2023-04-26T02:38:30.109Z,100718.00
2023-04-26T02:41:02.946Z,100721.00
2023-04-26T02:43:33.172Z,100720.00
2023-04-26T02:46:03.275Z,100718.00
2023-04-26T02:48:33.281Z,100724.00
2023-04-26T02:51:03.270Z,100709.00
2023-04-26T02:53:36.038Z,100720.00
2023-04-26T02:56:06.336Z,100718.00
2023-04-26T02:58:36.314Z,100714.00
2023-04-26T03:01:06.514Z,100712.00
2023-04-26T03:03:37.616Z,100718.00
2023-04-26T03:06:08.547Z,100725.00
2023-04-26T03:08:41.164Z,100720.00
2023-04-26T03:11:11.989Z,100726.00
2023-04-26T03:13:41.990Z,100717.00
2023-04-26T03:16:12.166Z,100724.00
2023-04-26T03:18:42.172Z,100722.00
2023-04-26T03:21:12.232Z,100724.00
2023-04-26T03:23:44.869Z,100718.00
2023-04-26T03:26:14.949Z,100724.00
2023-04-26T03:28:45.299Z,100725.00
2023-04-26T03:31:15.351Z,100723.00
2023-04-26T03:33:45.316Z,100732.00
2023-04-26T03:36:15.280Z,100730.00
2023-04-26T03:38:47.890Z,100740.00
2023-04-26T03:41:17.910Z,100737.00
2023-04-26T03:43:48.049Z,100730.00
2023-04-26T03:46:18.356Z,100742.00
2023-04-26T03:48:48.535Z,100739.00
2023-04-26T03:51:18.562Z,100734.00
2023-04-26T03:53:51.929Z,100730.00
2023-04-26T03:56:22.208Z,100740.00
2023-04-26T03:58:52.369Z,100743.00
2023-04-26T04:01:22.777Z,100745.00
2023-04-26T04:03:53.003Z,100749.00
2023-04-26T04:06:23.139Z,100752.00
2023-04-26T04:08:55.774Z,100755.00
2023-04-26T04:11:25.975Z,100747.00
2023-04-26T04:13:56.021Z,100747.00
2023-04-26T04:16:26.334Z,100745.00
2023-04-26T04:18:56.629Z,100748.00
2023-04-26T04:21:27.787Z,100756.00
2023-04-26T04:24:00.846Z,100757.00
2023-04-26T04:26:31.187Z,100748.00
2023-04-26T04:29:08.947Z,100754.00
2023-04-26T04:31:40.251Z,100754.00
2023-04-26T04:34:10.525Z,100759.00
2023-04-26T04:36:41.878Z,100762.00
2023-04-26T04:39:16.445Z,100759.00
2023-04-26T04:41:48.507Z,100760.00
2023-04-26T04:44:18.778Z,100765.00
2023-04-26T04:46:48.825Z,100765.00
2023-04-26T04:49:18.950Z,100771.00
2023-04-26T04:51:48.998Z,100775.00
2023-04-26T04:54:22.265Z,100773.00
2023-04-26T04:56:52.321Z,100785.00
2023-04-26T04:59:22.306Z,100779.00
2023-04-26T05:01:53.214Z,100789.00
2023-04-26T05:04:23.517Z,100790.00
2023-04-26T05:06:53.837Z,100781.00
2023-04-26T05:09:26.854Z,100790.00
2023-04-26T05:11:56.847Z,100785.00
2023-04-26T05:14:26.914Z,100800.00
2023-04-26T05:16:57.744Z,100794.00
2023-04-26T05:19:27.876Z,100790.00
2023-04-26T05:21:59.428Z,100797.00
2023-04-26T05:24:33.353Z,100798.00
2023-04-26T05:27:04.341Z,100804.00
2023-04-26T05:29:34.452Z,100810.00
2023-04-26T05:32:04.524Z,100807.00
2023-04-26T05:34:34.608Z,100801.00
2023-04-26T05:37:04.582Z,100812.00
2023-04-26T05:39:37.161Z,100816.00
2023-04-26T05:42:07.524Z,100807.00
2023-04-26T05:44:37.548Z,100821.00
2023-04-26T05:47:07.756Z,100832.00
2023-04-26T05:49:37.721Z,100833.00
2023-04-26T05:52:08.348Z,100835.00
2023-04-26T05:54:40.916Z,100827.00
2023-04-26T05:57:10.930Z,100835.00
2023-04-26T05:59:41.432Z,100827.00
2023-04-26T06:02:11.724Z,100833.00
2023-04-26T06:04:41.948Z,100833.00
2023-04-26T06:07:12.109Z,100828.00
2023-04-26T06:09:44.665Z,100826.00
2023-04-26T06:12:14.686Z,100825.00
2023-04-26T06:14:44.668Z,100833.00
2023-04-26T06:17:14.747Z,100827.00
2023-04-26T06:19:44.795Z,100823.00
2023-04-26T06:22:14.757Z,100837.00
2023-04-26T06:24:47.318Z,100843.00
2023-04-26T06:27:17.936Z,100838.00
2023-04-26T06:29:47.915Z,100830.00
2023-04-26T06:32:17.883Z,100832.00
2023-04-26T06:34:48.282Z,100844.00
2023-04-26T06:37:18.450Z,100823.00
2023-04-26T06:39:51.029Z,100831.00
2023-04-26T06:42:21.037Z,100843.00
2023-04-26T06:44:51.042Z,100835.00
2023-04-26T06:47:21.079Z,100838.00
2023-04-26T06:49:51.919Z,100850.00
2023-04-26T06:52:21.929Z,100848.00
2023-04-26T06:54:57.293Z,100850.00
2023-04-26T06:57:27.795Z,100853.00
2023-04-26T06:59:58.308Z,100852.00
2023-04-26T07:02:28.683Z,100849.00
2023-04-26T07:04:58.859Z,100855.00
2023-04-26T07:07:29.084Z,100853.00
2023-04-26T07:10:01.729Z,100850.00
2023-04-26T07:12:32.284Z,100846.00
2023-04-26T07:15:02.326Z,100849.00
2023-04-26T07:17:32.568Z,100852.00
2023-04-26T07:20:02.588Z,100847.00
2023-04-26T07:22:32.624Z,100857.00
2023-04-26T07:25:05.515Z,100855.00
2023-04-26T07:27:35.560Z,100863.00
2023-04-26T07:30:06.429Z,100861.00
2023-04-26T07:32:36.613Z,100851.00
2023-04-26T07:35:15.206Z,100863.00
2023-04-26T07:37:46.330Z,100855.00
2023-04-26T07:40:20.064Z,100859.00
2023-04-26T07:42:50.059Z,100862.00
2023-04-26T07:45:20.310Z,100857.00
2023-04-26T07:47:50.637Z,100874.00
2023-04-26T07:50:20.771Z,100873.00
2023-04-26T07:52:51.467Z,100872.00
2023-04-26T07:55:24.592Z,100880.00
2023-04-26T07:57:54.559Z,100885.00
2023-04-26T08:00:25.070Z,100881.00
2023-04-26T08:02:55.400Z,100878.00
2023-04-26T08:05:25.836Z,100880.00
2023-04-26T08:07:55.997Z,100874.00
2023-04-26T08:10:28.539Z,100890.00
2023-04-26T08:13:03.264Z,100879.00
2023-04-26T08:15:33.197Z,100886.00
2023-04-26T08:18:03.227Z,100889.00
2023-04-26T08:20:34.345Z,100880.00
2023-04-26T08:23:04.433Z,100887.00
2023-04-26T08:25:37.482Z,100885.00
2023-04-26T08:28:08.774Z,100885.00
2023-04-26T08:30:38.896Z,100898.00
2023-04-26T08:33:09.063Z,100894.00
2023-04-26T08:35:39.287Z,100895.00
2023-04-26T08:38:09.240Z,100890.00
2023-04-26T08:40:41.982Z,100885.00
2023-04-26T08:43:13.991Z,100883.00
2023-04-26T08:45:44.372Z,100883.00
2023-04-26T08:48:16.399Z,100897.00
2023-04-26T08:50:48.231Z,100884.00
2023-04-26T08:53:19.797Z,100895.00
2023-04-26T08:55:54.050Z,100900.00
2023-04-26T08:58:25.325Z,100893.00
2023-04-26T09:00:55.813Z,100887.00
2023-04-26T09:03:27.049Z,100889.00
2023-04-26T09:05:57.617Z,100891.00
2023-04-26T09:08:28.425Z,100882.00
2023-04-26T09:11:01.055Z,100893.00
2023-04-26T09:13:32.347Z,100905.00
2023-04-26T09:16:04.781Z,100892.00
2023-04-26T09:18:35.253Z,100899.00
2023-04-26T09:21:08.714Z,100900.00
2023-04-26T09:23:38.756Z,100899.00
2023-04-26T09:26:25.211Z,100909.00
2023-04-26T09:29:15.405Z,100912.00
2023-04-26T09:31:49.795Z,100909.00
2023-04-26T09:34:20.282Z,100909.00
2023-04-26T09:36:52.083Z,100909.00
2023-04-26T09:39:36.027Z,100905.00
2023-04-26T09:42:09.417Z,100904.00
2023-04-26T09:44:39.594Z,100900.00
2023-04-26T09:47:12.069Z,100901.00
2023-04-26T09:49:51.913Z,100904.00
2023-04-26T09:52:22.591Z,100904.00
2023-04-26T09:54:55.103Z,100914.00
2023-04-26T09:57:27.732Z,100906.00
2023-04-26T09:59:57.999Z,100901.00
2023-04-26T10:02:30.528Z,100908.00
2023-04-26T10:05:02.270Z,100908.00
2023-04-26T10:07:33.827Z,100918.00
2023-04-26T10:10:04.933Z,100915.00
2023-04-26T10:12:37.667Z,100906.00
2023-04-26T10:15:10.356Z,100899.00
2023-04-26T10:17:40.788Z,100913.00
2023-04-26T10:20:16.372Z,100910.00
2023-04-26T10:22:54.524Z,100916.00
2023-04-26T10:25:37.692Z,100907.00
2023-04-26T10:28:10.724Z,100912.00
2023-04-26T10:30:58.975Z,100917.00
2023-04-26T10:33:29.527Z,100909.00
2023-04-26T10:36:12.339Z,100911.00
2023-04-26T10:38:45.009Z,100911.00
2023-04-26T10:41:34.348Z,100911.00
2023-04-26T10:44:45.868Z,100910.00
2023-04-26T10:47:29.852Z,100910.00
2023-04-26T10:50:11.737Z,100911.00
2023-04-26T10:53:10.698Z,100902.00
2023-04-26T10:55:44.454Z,100907.00
2023-04-26T10:58:36.306Z,100896.00
2023-04-26T11:01:11.941Z,100911.00
2023-04-26T11:03:43.913Z,100897.00
2023-04-26T11:06:15.817Z,100914.00
2023-04-26T11:08:50.902Z,100913.00
2023-04-26T11:11:22.438Z,100909.00
2023-04-26T11:13:52.385Z,100914.00
2023-04-26T11:16:22.791Z,100918.00
2023-04-26T11:18:52.942Z,100917.00
2023-04-26T11:21:25.478Z,100917.00
2023-04-26T11:24:01.153Z,100918.00
2023-04-26T11:26:37.252Z,100922.00
2023-04-26T11:29:13.594Z,100915.00
2023-04-26T11:31:43.618Z,100900.00
2023-04-26T11:34:14.084Z,100914.00
2023-04-26T11:36:44.055Z,100914.00
2023-04-26T11:39:17.008Z,100911.00
2023-04-26T11:41:46.976Z,100919.00
2023-04-26T11:44:21.400Z,100921.00
2023-04-26T11:46:52.009Z,100924.00
2023-04-26T11:49:22.302Z,100923.00
2023-04-26T11:51:52.524Z,100928.00
2023-04-26T11:54:37.859Z,100920.00
2023-04-26T11:57:17.931Z,100923.00
2023-04-26T11:59:48.658Z,100927.00
2023-04-26T12:02:20.843Z,100920.00
2023-04-26T12:04:51.914Z,100930.00
2023-04-26T12:07:22.477Z,100931.00
2023-04-26T12:09:55.050Z,100927.00
2023-04-26T12:12:27.073Z,100929.00
2023-04-26T12:14:57.190Z,100927.00
2023-04-26T12:17:27.302Z,100929.00
2023-04-26T12:19:57.404Z,100932.00
2023-04-26T12:22:27.520Z,100927.00
2023-04-26T12:25:11.781Z,100933.00
2023-04-26T12:27:42.573Z,100928.00
2023-04-26T12:30:13.726Z,100930.00
2023-04-26T12:32:43.728Z,100934.00
2023-04-26T12:35:13.756Z,100932.00
2023-04-26T12:37:43.793Z,100928.00
2023-04-26T12:40:16.997Z,100919.00
2023-04-26T12:42:46.969Z,100920.00
2023-04-26T12:45:16.971Z,100922.00
2023-04-26T12:47:47.618Z,100923.00
2023-04-26T12:50:18.833Z,100921.00
2023-04-26T12:52:49.136Z,100928.00
2023-04-26T12:55:22.656Z,100931.00
2023-04-26T12:57:52.653Z,100929.00
2023-04-26T13:00:23.412Z,100922.00
2023-04-26T13:02:53.732Z,100924.00
2023-04-26T13:05:25.616Z,100926.00
2023-04-26T13:07:55.692Z,100934.00
2023-04-26T13:10:28.302Z,100938.00
2023-04-26T13:12:58.655Z,100939.00
2023-04-26T13:15:29.967Z,100935.00
2023-04-26T13:18:00.152Z,100937.00
2023-04-26T13:20:31.052Z,100948.00
2023-04-26T13:23:01.138Z,100943.00
2023-04-26T13:25:33.771Z,100926.00
2023-04-26T13:28:03.802Z,100944.00
2023-04-26T13:30:34.245Z,100946.00
2023-04-26T13:33:04.994Z,100944.00
2023-04-26T13:35:35.039Z,100949.00
2023-04-26T13:38:05.002Z,100940.00
2023-04-26T13:40:37.605Z,100953.00
2023-04-26T13:43:07.606Z,100948.00
2023-04-26T13:45:37.576Z,100949.00
2023-04-26T13:48:08.008Z,100946.00
2023-04-26T13:50:39.099Z,100958.00
2023-04-26T13:53:09.073Z,100948.00
2023-04-26T13:55:42.206Z,100944.00
2023-04-26T13:58:12.301Z,100940.00
2023-04-26T14:00:42.425Z,100941.00
2023-04-26T14:03:12.587Z,100948.00
2023-04-26T14:05:42.683Z,100951.00
2023-04-26T14:08:12.886Z,100954.00
2023-04-26T14:10:45.570Z,100949.00
2023-04-26T14:13:16.032Z,100956.00
2023-04-26T14:15:46.015Z,100962.00
2023-04-26T14:18:16.524Z,100968.00
2023-04-26T14:20:46.973Z,100971.00
2023-04-26T14:23:17.151Z,100965.00
2023-04-26T14:25:49.728Z,100963.00
2023-04-26T14:28:19.727Z,100958.00
2023-04-26T14:30:49.831Z,100961.00
2023-04-26T14:33:19.823Z,100960.00
2023-04-26T14:35:50.316Z,100951.00
2023-04-26T14:38:21.323Z,100948.00
2023-04-26T14:40:53.889Z,100964.00
2023-04-26T14:43:24.126Z,100965.00
2023-04-26T14:45:54.135Z,100957.00
2023-04-26T14:48:24.127Z,100971.00
2023-04-26T14:51:01.444Z,100962.00
2023-04-26T14:53:31.663Z,100962.00
2023-04-26T14:56:07.544Z,100976.00
2023-04-26T14:58:37.695Z,100968.00
2023-04-26T15:01:08.209Z,100962.00
2023-04-26T15:03:38.478Z,100970.00
2023-04-26T15:06:10.930Z,100970.00
2023-04-26T15:08:40.893Z,100969.00
2023-04-26T15:11:13.455Z,100968.00
2023-04-26T15:13:43.419Z,100965.00
2023-04-26T15:16:13.571Z,100972.00
2023-04-26T15:18:43.748Z,100962.00
2023-04-26T15:21:19.546Z,100961.00
2023-04-26T15:23:49.565Z,100967.00
2023-04-26T15:26:22.100Z,100969.00
2023-04-26T15:28:52.404Z,100970.00
2023-04-26T15:31:24.432Z,100970.00
2023-04-26T15:33:56.510Z,100974.00
2023-04-26T15:36:26.461Z,100980.00
2023-04-26T15:38:56.676Z,100971.00
2023-04-26T15:41:29.261Z,100972.00
2023-04-26T15:43:59.948Z,100980.00
2023-04-26T15:46:31.071Z,100972.00
2023-04-26T15:49:04.046Z,100978.00
2023-04-26T15:51:49.602Z,100978.00
2023-04-26T15:54:27.370Z,100980.00
2023-04-26T15:57:00.043Z,100977.00
2023-04-26T15:59:30.794Z,100985.00
2023-04-26T16:02:00.864Z,100992.00
2023-04-26T16:04:31.414Z,100989.00
2023-04-26T16:07:01.496Z,100988.00
2023-04-26T16:09:31.789Z,100985.00
2023-04-26T16:12:05.655Z,100985.00
2023-04-26T16:14:35.933Z,100985.00
2023-04-26T16:17:06.370Z,100986.00
2023-04-26T16:19:36.362Z,100979.00
2023-04-26T16:22:06.507Z,100994.00
2023-04-26T16:24:36.534Z,100983.00
2023-04-26T16:27:09.575Z,100985.00
2023-04-26T16:29:39.615Z,100985.00
2023-04-26T16:32:09.598Z,100981.00
2023-04-26T16:34:39.534Z,100980.00
2023-04-26T16:37:10.291Z,100985.00
2023-04-26T16:39:40.359Z,100977.00
2023-04-26T16:42:13.007Z,100984.00
2023-04-26T16:44:43.187Z,100987.00
2023-04-26T16:47:13.289Z,100976.00
2023-04-26T16:49:43.262Z,100985.00
2023-04-26T16:52:13.255Z,100988.00
2023-04-26T16:54:43.276Z,100991.00
2023-04-26T16:57:15.838Z,100993.00
2023-04-26T16:59:46.474Z,100995.00
2023-04-26T17:02:16.632Z,100999.00
2023-04-26T17:04:47.511Z,100997.00
2023-04-26T17:07:17.653Z,100994.00
2023-04-26T17:09:47.642Z,100995.00
2023-04-26T17:12:20.206Z,100989.00
2023-04-26T17:14:50.209Z,100995.00
2023-04-26T17:17:20.195Z,100999.00
2023-04-26T17:19:50.192Z,100990.00
2023-04-26T17:22:20.193Z,101003.00
2023-04-26T17:24:50.201Z,100996.00
2023-04-26T17:27:24.910Z,101002.00
2023-04-26T17:29:54.790Z,101001.00
2023-04-26T17:32:24.864Z,101002.00
2023-04-26T17:34:55.255Z,101013.00
2023-04-26T17:37:25.238Z,101007.00
2023-04-26T17:39:55.206Z,101005.00
2023-04-26T17:42:28.830Z,101007.00
2023-04-26T17:44:58.777Z,101005.00
2023-04-26T17:47:28.800Z,101010.00
2023-04-26T17:49:58.787Z,101010.00
2023-04-26T17:52:29.155Z,101007.00
2023-04-26T17:54:59.092Z,101008.00
2023-04-26T17:57:31.670Z,101002.00
2023-04-26T18:00:01.630Z,101011.00
2023-04-26T18:02:31.795Z,101010.00
2023-04-26T18:05:02.259Z,101017.00
2023-04-26T18:07:32.345Z,101012.00
2023-04-26T18:10:02.320Z,101018.00
2023-04-26T18:12:35.527Z,101016.00
2023-04-26T18:15:05.735Z,101023.00
2023-04-26T18:17:36.319Z,101022.00
2023-04-26T18:20:06.738Z,101016.00
2023-04-26T18:22:36.708Z,101019.00
2023-04-26T18:25:07.782Z,101028.00
2023-04-26T18:27:40.342Z,101033.00
2023-04-26T18:30:12.986Z,101038.00
2023-04-26T18:32:43.033Z,101034.00
2023-04-26T18:35:14.219Z,101043.00
2023-04-26T18:37:44.164Z,101045.00
2023-04-26T18:40:15.896Z,101046.00
2023-04-26T18:42:48.455Z,101046.00
2023-04-26T18:45:19.245Z,101044.00
2023-04-26T18:47:49.262Z,101048.00
2023-04-26T18:50:19.467Z,101056.00
2023-04-26T18:52:49.447Z,101059.00
2023-04-26T18:55:19.851Z,101059.00
2023-04-26T18:57:52.409Z,101050.00
2023-04-26T19:00:23.257Z,101057.00
2023-04-26T19:02:53.570Z,101063.00
2023-04-26T19:05:23.888Z,101063.00
2023-04-26T19:07:55.257Z,101061.00
2023-04-26T19:10:25.828Z,101057.00
2023-04-26T19:12:58.397Z,101067.00
2023-04-26T19:15:28.536Z,101070.00
2023-04-26T19:17:58.677Z,101079.00
2023-04-26T19:20:29.686Z,101078.00
2023-04-26T19:22:59.646Z,101085.00
2023-04-26T19:25:30.621Z,101080.00
2023-04-26T19:28:04.555Z,101081.00
2023-04-26T19:30:34.596Z,101089.00
2023-04-26T19:33:04.590Z,101080.00
2023-04-26T19:35:34.589Z,101080.00
2023-04-26T19:38:06.849Z,101085.00
2023-04-26T19:40:38.831Z,101087.00
2023-04-26T19:43:11.514Z,101089.00
2023-04-26T19:45:42.108Z,101090.00
2023-04-26T19:48:12.824Z,101092.00
2023-04-26T19:50:44.030Z,101096.00
2023-04-26T19:53:15.786Z,101080.00
2023-04-26T19:55:46.085Z,101092.00
2023-04-26T19:58:18.729Z,101087.00
2023-04-26T20:00:48.719Z,101095.00
2023-04-26T20:03:18.890Z,101088.00
2023-04-26T20:05:49.511Z,101103.00
2023-04-26T20:08:19.614Z,101093.00
2023-04-26T20:10:49.616Z,101101.00
2023-04-26T20:13:22.459Z,101100.00
2023-04-26T20:15:52.418Z,101109.00
2023-04-26T20:18:22.813Z,101106.00
2023-04-26T20:20:53.068Z,101107.00
2023-04-26T20:23:23.159Z,101105.00
2023-04-26T20:25:54.440Z,101104.00
2023-04-26T20:28:27.193Z,101108.00
2023-04-26T20:30:57.228Z,101108.00
2023-04-26T20:33:27.325Z,101103.00
2023-04-26T20:35:57.391Z,101108.00
2023-04-26T20:38:27.476Z,101106.00
2023-04-26T20:40:57.510Z,101111.00
2023-04-26T20:43:30.092Z,101125.00
2023-04-26T20:46:00.257Z,101113.00
2023-04-26T20:48:30.268Z,101111.00
2023-04-26T20:51:02.108Z,101110.00
2023-04-26T20:53:32.271Z,101109.00
2023-04-26T20:56:02.292Z,101109.00
2023-04-26T20:58:34.911Z,101115.00
2023-04-26T21:01:07.184Z,101118.00
2023-04-26T21:03:39.155Z,101121.00
2023-04-26T21:06:09.515Z,101112.00
2023-04-26T21:08:40.692Z,101111.00
2023-04-26T21:11:10.644Z,101111.00
2023-04-26T21:13:43.182Z,101106.00
2023-04-26T21:16:13.209Z,101106.00
2023-04-26T21:18:43.341Z,101114.00
2023-04-26T21:21:13.505Z,101112.00
2023-04-26T21:23:43.468Z,101110.00
2023-04-26T21:26:13.470Z,101116.00
2023-04-26T21:28:46.496Z,101110.00
2023-04-26T21:31:16.556Z,101112.00
2023-04-26T21:33:46.578Z,101116.00
2023-04-26T21:36:16.582Z,101114.00
2023-04-26T21:38:46.557Z,101118.00
2023-04-26T21:41:16.573Z,101121.00
2023-04-26T21:43:50.329Z,101119.00
2023-04-26T21:46:20.342Z,101120.00
2023-04-26T21:48:50.348Z,101124.00
2023-04-26T21:51:20.327Z,101123.00
2023-04-26T21:53:50.585Z,101123.00
2023-04-26T21:56:20.640Z,101126.00
2023-04-26T21:58:53.191Z,101124.00
2023-04-26T22:01:23.226Z,101118.00
2023-04-26T22:03:53.244Z,101122.00
2023-04-26T22:06:23.277Z,101122.00
2023-04-26T22:08:53.271Z,101128.00
2023-04-26T22:11:23.303Z,101131.00
2023-04-26T22:13:55.865Z,101134.00
2023-04-26T22:16:26.223Z,101142.00
2023-04-26T22:18:56.222Z,101135.00
2023-04-26T22:21:26.930Z,101138.00
2023-04-26T22:23:57.277Z,101141.00
2023-04-26T22:26:27.336Z,101145.00
2023-04-26T22:28:59.937Z,101148.00
2023-04-26T22:31:29.918Z,101139.00
2023-04-26T22:33:59.927Z,101152.00
2023-04-26T22:36:30.031Z,101153.00
2023-04-26T22:39:00.352Z,101156.00
2023-04-26T22:41:30.689Z,101155.00
2023-04-26T22:44:03.265Z,101165.00
2023-04-26T22:46:33.307Z,101160.00
2023-04-26T22:49:03.377Z,101158.00
2023-04-26T22:51:33.429Z,101161.00
2023-04-26T22:54:06.700Z,101156.00
2023-04-26T22:56:36.789Z,101161.00
2023-04-26T22:59:09.498Z,101157.00
2023-04-26T23:01:39.685Z,101162.00
2023-04-26T23:04:09.766Z,101164.00
2023-04-26T23:06:39.813Z,101173.00
2023-04-26T23:09:10.016Z,101164.00
2023-04-26T23:11:40.495Z,101172.00
2023-04-26T23:14:13.014Z,101178.00
2023-04-26T23:16:43.050Z,101174.00
2023-04-26T23:19:13.430Z,101171.00
2023-04-26T23:21:43.627Z,101181.00
2023-04-26T23:24:13.601Z,101170.00
2023-04-26T23:26:43.598Z,101178.00
2023-04-26T23:29:16.162Z,101177.00
2023-04-26T23:31:46.165Z,101178.00
2023-04-26T23:34:16.136Z,101178.00
2023-04-26T23:36:46.168Z,101179.00
2023-04-26T23:39:16.139Z,101172.00
2023-04-26T23:41:46.179Z,101181.00
2023-04-26T23:44:18.727Z,101180.00
2023-04-26T23:46:48.759Z,101172.00
2023-04-26T23:49:18.789Z,101178.00
2023-04-26T23:51:48.731Z,101172.00
2023-04-26T23:54:18.746Z,101165.00
2023-04-26T23:56:48.762Z,101171.00
2023-04-26T23:59:21.358Z,101174.00
